createdAt,value
2023-05-14T00:00:31.357Z,99481.78
2023-05-14T00:03:19.360Z,99478.41
2023-05-14T00:06:06.448Z,99476.66
2023-05-14T00:08:53.057Z,99469.06
2023-05-14T00:11:39.820Z,99465.72
2023-05-14T00:14:26.496Z,99465.00
2023-05-14T00:17:13.122Z,99461.75
2023-05-14T00:20:00.953Z,99463.47
2023-05-14T00:22:47.555Z,99470.47
2023-05-14T00:25:33.885Z,99468.00
2023-05-14T00:28:20.846Z,99463.81
2023-05-14T00:31:08.517Z,99466.50
2023-05-14T00:33:55.132Z,99460.66
2023-05-14T00:36:43.316Z,99461.59
2023-05-14T00:39:29.826Z,99449.72
2023-05-14T00:42:16.645Z,99453.19
2023-05-14T00:45:03.248Z,99451.56
2023-05-14T00:47:50.525Z,99447.34
2023-05-14T00:50:37.494Z,99452.47
2023-05-14T00:53:25.696Z,99451.78
2023-05-14T00:56:12.604Z,99455.41
2023-05-14T00:58:59.004Z,99455.53
2023-05-14T01:01:45.893Z,99448.88
2023-05-14T01:04:32.902Z,99449.78
2023-05-14T01:07:27.619Z,99437.75
2023-05-14T01:10:22.290Z,99442.22
2023-05-14T01:13:18.406Z,99440.56
2023-05-14T01:16:06.130Z,99434.75
2023-05-14T01:18:54.278Z,99445.94
2023-05-14T01:21:44.779Z,99436.59
2023-05-14T01:24:31.058Z,99437.53
2023-05-14T01:27:32.314Z,99438.47
2023-05-14T01:30:24.769Z,99437.75
2023-05-14T01:33:14.783Z,99436.13
2023-05-14T01:36:01.657Z,99442.09
2023-05-14T01:38:51.344Z,99438.78
2023-05-14T01:41:40.089Z,99438.13
2023-05-14T01:44:27.170Z,99444.16
2023-05-14T01:47:14.005Z,99439.16
2023-05-14T01:50:00.544Z,99441.72
2023-05-14T01:52:48.184Z,99430.75
2023-05-14T01:55:36.207Z,99435.88
2023-05-14T01:58:23.877Z,99428.41
2023-05-14T02:01:10.555Z,99433.53
2023-05-14T02:03:57.836Z,99425.97
2023-05-14T02:06:44.357Z,99430.28
2023-05-14T02:09:31.679Z,99421.88
2023-05-14T02:12:20.024Z,99430.50
2023-05-14T02:15:08.882Z,99424.66
2023-05-14T02:17:55.678Z,99434.94
2023-05-14T02:20:42.278Z,99423.84
2023-05-14T02:23:40.549Z,99425.59
2023-05-14T02:26:28.261Z,99419.75
2023-05-14T02:29:17.069Z,99409.47
2023-05-14T02:32:03.978Z,99417.19
2023-05-14T02:34:50.703Z,99427.56
2023-05-14T02:37:37.569Z,99415.69
2023-05-14T02:40:24.568Z,99422.53
2023-05-14T02:43:11.403Z,99422.53
2023-05-14T02:45:59.270Z,99410.88
2023-05-14T02:48:45.996Z,99418.56
2023-05-14T02:51:32.418Z,99418.56
2023-05-14T02:54:18.994Z,99416.00
2023-05-14T02:57:06.351Z,99409.22
2023-05-14T02:59:52.712Z,99417.88
2023-05-14T03:02:42.057Z,99414.59
2023-05-14T03:05:29.158Z,99415.44
2023-05-14T03:08:15.907Z,99411.34
2023-05-14T03:11:02.462Z,99419.97
2023-05-14T03:13:49.243Z,99425.09
2023-05-14T03:16:36.187Z,99416.69
2023-05-14T03:19:24.085Z,99418.53
2023-05-14T03:22:10.709Z,99414.34
2023-05-14T03:24:57.870Z,99417.81
2023-05-14T03:27:44.254Z,99416.09
2023-05-14T03:30:30.950Z,99412.78
2023-05-14T03:33:17.717Z,99412.78
2023-05-14T03:36:06.366Z,99410.34
2023-05-14T03:38:52.843Z,99413.00
2023-05-14T03:41:39.249Z,99412.22
2023-05-14T03:44:26.070Z,99409.66
2023-05-14T03:47:12.958Z,99412.28
2023-05-14T03:50:00.202Z,99411.50
2023-05-14T03:52:47.908Z,99409.72
2023-05-14T03:55:34.215Z,99419.97
2023-05-14T03:58:21.544Z,99409.72
2023-05-14T04:01:08.237Z,99414.97
2023-05-14T04:03:54.928Z,99411.72
2023-05-14T04:06:41.477Z,99413.56
2023-05-14T04:09:29.206Z,99412.88
2023-05-14T04:12:16.485Z,99415.56
2023-05-14T04:15:03.026Z,99407.94
2023-05-14T04:17:49.796Z,99411.47
2023-05-14T04:20:36.782Z,99413.31
2023-05-14T04:23:23.435Z,99409.00
2023-05-14T04:26:11.214Z,99403.88
2023-05-14T04:28:58.211Z,99402.25
2023-05-14T04:31:45.468Z,99405.50
2023-05-14T04:34:32.246Z,99406.34
2023-05-14T04:37:18.994Z,99407.13
2023-05-14T04:40:07.997Z,99409.81
2023-05-14T04:42:55.910Z,99409.00
2023-05-14T04:45:43.044Z,99406.34
2023-05-14T04:48:29.382Z,99405.38
2023-05-14T04:51:15.717Z,99400.97
2023-05-14T04:54:02.383Z,99405.19
2023-05-14T04:56:49.121Z,99411.00
2023-05-14T04:59:37.062Z,99424.53
2023-05-14T05:02:23.752Z,99414.97
2023-05-14T05:05:11.261Z,99417.41
2023-05-14T05:07:57.577Z,99417.34
2023-05-14T05:10:44.234Z,99413.81
2023-05-14T05:13:32.113Z,99417.22
2023-05-14T05:16:19.868Z,99416.25
2023-05-14T05:19:06.418Z,99417.91
2023-05-14T05:21:53.210Z,99411.78
2023-05-14T05:24:39.890Z,99420.88
2023-05-14T05:27:26.425Z,99421.59
2023-05-14T05:30:13.765Z,99421.38
2023-05-14T05:33:01.982Z,99421.13
2023-05-14T05:35:50.097Z,99413.22
2023-05-14T05:38:36.530Z,99408.81
2023-05-14T05:41:23.269Z,99414.53
2023-05-14T05:44:09.825Z,99421.06
2023-05-14T05:46:57.695Z,99418.38
2023-05-14T05:49:45.653Z,99413.94
2023-05-14T05:52:32.425Z,99407.78
2023-05-14T05:55:19.075Z,99412.66
2023-05-14T05:58:05.677Z,99406.50
2023-05-14T06:00:53.316Z,99408.03
2023-05-14T06:03:40.703Z,99406.97
2023-05-14T06:06:29.609Z,99409.22
2023-05-14T06:09:16.252Z,99411.66
2023-05-14T06:12:03.091Z,99405.50
2023-05-14T06:14:50.172Z,99406.88
2023-05-14T06:17:36.928Z,99405.00
2023-05-14T06:20:23.599Z,99401.41
2023-05-14T06:23:12.161Z,99403.72
2023-05-14T06:25:58.886Z,99411.22
2023-05-14T06:28:45.990Z,99404.19
2023-05-14T06:31:32.765Z,99411.66
2023-05-14T06:34:19.317Z,99409.81
2023-05-14T06:37:06.953Z,99413.91
2023-05-14T06:39:57.601Z,99412.84
2023-05-14T06:42:44.209Z,99405.84
2023-05-14T06:45:33.119Z,99407.47
2023-05-14T06:48:20.830Z,99407.22
2023-05-14T06:51:07.634Z,99405.38
2023-05-14T06:53:54.384Z,99404.41
2023-05-14T06:56:42.482Z,99403.50
2023-05-14T06:59:29.264Z,99394.06
2023-05-14T07:02:15.667Z,99393.81
2023-05-14T07:05:02.388Z,99392.78
2023-05-14T07:07:49.246Z,99384.94
2023-05-14T07:10:35.754Z,99391.59
2023-05-14T07:13:24.917Z,99390.66
2023-05-14T07:16:12.448Z,99382.88
2023-05-14T07:18:59.062Z,99392.09
2023-05-14T07:21:45.682Z,99390.22
2023-05-14T07:24:32.493Z,99384.03
2023-05-14T07:27:19.210Z,99381.22
2023-05-14T07:30:09.124Z,99377.59
2023-05-14T07:32:55.729Z,99363.81
2023-05-14T07:35:42.552Z,99370.59
2023-05-14T07:38:28.986Z,99373.03
2023-05-14T07:41:15.440Z,99365.22
2023-05-14T07:44:02.227Z,99357.25
2023-05-14T07:46:50.039Z,99362.28
2023-05-14T07:49:36.752Z,99357.03
2023-05-14T07:52:23.727Z,99360.28
2023-05-14T07:55:11.332Z,99351.66
2023-05-14T07:57:57.698Z,99348.03
2023-05-14T08:00:44.239Z,99346.97
2023-05-14T08:03:31.957Z,99348.47
2023-05-14T08:06:20.898Z,99341.34
2023-05-14T08:09:08.607Z,99348.78
2023-05-14T08:11:55.545Z,99346.00
2023-05-14T08:14:41.901Z,99344.81
2023-05-14T08:17:28.588Z,99357.16
2023-05-14T08:20:16.701Z,99347.59
2023-05-14T08:23:03.390Z,99348.03
2023-05-14T08:25:50.381Z,99347.78
2023-05-14T08:28:36.999Z,99343.31
2023-05-14T08:31:23.831Z,99336.91
2023-05-14T08:34:10.739Z,99326.91
2023-05-14T08:36:59.477Z,99328.88
2023-05-14T08:39:46.129Z,99325.72
2023-05-14T08:42:33.276Z,99328.47
2023-05-14T08:45:21.970Z,99331.22
2023-05-14T08:48:10.972Z,99333.25
2023-05-14T08:50:58.466Z,99335.91
2023-05-14T08:53:46.341Z,99330.00
2023-05-14T08:56:34.164Z,99334.75
2023-05-14T08:59:20.896Z,99336.13
2023-05-14T09:02:09.178Z,99327.47
2023-05-14T09:04:59.043Z,99327.47
2023-05-14T09:07:46.425Z,99325.03
2023-05-14T09:10:34.190Z,99320.81
2023-05-14T09:13:20.823Z,99314.16
2023-05-14T09:16:08.511Z,99323.75
2023-05-14T09:18:55.355Z,99326.59
2023-05-14T09:21:42.211Z,99318.31
2023-05-14T09:24:30.149Z,99322.78
2023-05-14T09:27:21.320Z,99317.91
2023-05-14T09:30:11.418Z,99324.91
2023-05-14T09:32:58.167Z,99315.03
2023-05-14T09:35:44.791Z,99311.75
2023-05-14T09:38:31.882Z,99311.09
2023-05-14T09:41:19.212Z,99310.38
2023-05-14T09:44:07.120Z,99306.16
2023-05-14T09:46:54.684Z,99311.31
2023-05-14T09:49:41.533Z,99309.72
2023-05-14T09:52:28.765Z,99310.63
2023-05-14T09:55:16.007Z,99310.78
2023-05-14T09:58:02.417Z,99308.34
2023-05-14T10:00:51.223Z,99307.50
2023-05-14T10:03:38.360Z,99306.69
2023-05-14T10:06:27.159Z,99301.69
2023-05-14T10:09:15.390Z,99302.47
2023-05-14T10:12:02.915Z,99305.06
2023-05-14T10:14:53.208Z,99301.56
2023-05-14T10:17:45.836Z,99304.78
2023-05-14T10:20:32.472Z,99298.72
2023-05-14T10:23:19.622Z,99302.78
2023-05-14T10:26:06.878Z,99309.44
2023-05-14T10:28:54.169Z,99300.09
2023-05-14T10:31:53.645Z,99299.16
2023-05-14T10:34:44.032Z,99305.09
2023-05-14T10:37:31.554Z,99299.16
2023-05-14T10:40:19.141Z,99304.28
2023-05-14T10:43:06.338Z,99299.16
2023-05-14T10:45:53.477Z,99295.88
2023-05-14T10:48:43.546Z,99301.03
2023-05-14T10:51:32.218Z,99294.28
2023-05-14T10:54:18.785Z,99296.84
2023-05-14T10:57:05.655Z,99296.97
2023-05-14T10:59:55.196Z,99293.56
2023-05-14T11:02:43.788Z,99296.28
2023-05-14T11:05:30.665Z,99299.78
2023-05-14T11:08:19.876Z,99296.41
2023-05-14T11:11:07.278Z,99289.63
2023-05-14T11:13:54.853Z,99287.97
2023-05-14T11:16:42.246Z,99287.19
2023-05-14T11:19:28.979Z,99288.94
2023-05-14T11:22:15.803Z,99291.53
2023-05-14T11:25:03.851Z,99286.38
2023-05-14T11:27:51.678Z,99283.81
2023-05-14T11:30:39.635Z,99285.53
2023-05-14T11:33:28.353Z,99281.22
2023-05-14T11:36:15.089Z,99282.16
2023-05-14T11:39:01.705Z,99279.59
2023-05-14T11:41:49.768Z,99281.22
2023-05-14T11:44:36.580Z,99280.41
2023-05-14T11:47:23.408Z,99285.53
2023-05-14T11:50:11.111Z,99278.66
2023-05-14T11:52:58.408Z,99275.25
2023-05-14T11:55:44.762Z,99269.31
2023-05-14T11:58:34.753Z,99264.97
2023-05-14T12:01:21.249Z,99265.81
2023-05-14T12:04:07.805Z,99261.47
2023-05-14T12:06:55.059Z,99256.31
2023-05-14T12:09:48.914Z,99263.91
2023-05-14T12:12:37.482Z,99255.25
2023-05-14T12:15:26.665Z,99254.31
2023-05-14T12:18:23.334Z,99254.19
2023-05-14T12:21:11.949Z,99254.06
2023-05-14T12:24:00.365Z,99247.97
2023-05-14T12:26:48.216Z,99247.84
2023-05-14T12:29:38.656Z,99247.84
2023-05-14T12:32:27.358Z,99236.72
2023-05-14T12:35:13.685Z,99240.94
2023-05-14T12:38:00.474Z,99237.41
2023-05-14T12:40:47.542Z,99230.66
2023-05-14T12:43:34.333Z,99229.72
2023-05-14T12:46:21.289Z,99228.78
2023-05-14T12:49:09.192Z,99228.63
2023-05-14T12:52:04.463Z,99223.50
2023-05-14T12:55:02.542Z,99223.38
2023-05-14T12:57:49.119Z,99221.50
2023-05-14T13:00:35.566Z,99219.59
2023-05-14T13:03:22.074Z,99214.16
2023-05-14T13:06:10.165Z,99211.34
2023-05-14T13:08:59.779Z,99199.16
2023-05-14T13:11:46.334Z,99201.47
2023-05-14T13:14:32.970Z,99198.66
2023-05-14T13:17:19.773Z,99193.38
2023-05-14T13:20:08.259Z,99188.09
2023-05-14T13:22:56.226Z,99183.63
2023-05-14T13:25:43.035Z,99185.25
2023-05-14T13:28:29.910Z,99170.66
2023-05-14T13:31:16.527Z,99176.44
2023-05-14T13:34:03.245Z,99169.53
2023-05-14T13:36:50.695Z,99171.16
2023-05-14T13:39:39.403Z,99167.66
2023-05-14T13:42:27.147Z,99166.72
2023-05-14T13:45:13.990Z,99156.44
2023-05-14T13:48:00.521Z,99158.03
2023-05-14T13:50:47.340Z,99152.78
2023-05-14T13:53:34.151Z,99143.28
2023-05-14T13:56:22.369Z,99136.25
2023-05-14T13:59:09.231Z,99136.25
2023-05-14T14:01:55.700Z,99129.34
2023-05-14T14:04:42.077Z,99119.84
2023-05-14T14:07:28.857Z,99120.69
2023-05-14T14:10:15.492Z,99117.13
2023-05-14T14:13:03.451Z,99120.53
2023-05-14T14:15:50.342Z,99105.09
2023-05-14T14:18:37.023Z,99094.81
2023-05-14T14:21:23.657Z,99099.94
2023-05-14T14:24:10.151Z,99093.97
2023-05-14T14:26:56.831Z,99088.03
2023-05-14T14:29:44.601Z,99091.53
2023-05-14T14:32:31.284Z,99088.16
2023-05-14T14:35:20.116Z,99081.25
2023-05-14T14:38:06.580Z,99078.00
2023-05-14T14:40:53.166Z,99077.06
2023-05-14T14:43:43.340Z,99079.66
2023-05-14T14:46:31.317Z,99079.66
2023-05-14T14:49:17.942Z,99069.34
2023-05-14T14:52:04.930Z,99075.44
2023-05-14T14:55:02.045Z,99075.44
2023-05-14T14:57:48.640Z,99071.91
2023-05-14T15:00:35.298Z,99075.28
2023-05-14T15:03:24.520Z,99070.94
2023-05-14T15:06:11.431Z,99069.34
2023-05-14T15:08:58.848Z,99076.09
2023-05-14T15:11:45.659Z,99071.78
2023-05-14T15:14:32.342Z,99068.38
2023-05-14T15:17:18.993Z,99067.56
2023-05-14T15:20:09.941Z,99059.84
2023-05-14T15:22:56.895Z,99066.78
2023-05-14T15:25:43.544Z,99069.34
2023-05-14T15:28:30.037Z,99062.56
2023-05-14T15:31:17.118Z,99066.78
2023-05-14T15:34:03.974Z,99061.63
2023-05-14T15:36:51.837Z,99060.00
2023-05-14T15:39:38.356Z,99066.88
2023-05-14T15:42:24.683Z,99065.13
2023-05-14T15:45:13.289Z,99065.13
2023-05-14T15:47:59.668Z,99066.88
2023-05-14T15:50:49.698Z,99061.72
2023-05-14T15:53:37.816Z,99053.22
2023-05-14T15:56:24.650Z,99057.41
2023-05-14T15:59:11.266Z,99056.59
2023-05-14T16:01:57.983Z,99049.69
2023-05-14T16:04:45.050Z,99048.75
2023-05-14T16:07:31.727Z,99050.38
2023-05-14T16:10:21.123Z,99040.06
2023-05-14T16:13:07.762Z,99044.41
2023-05-14T16:15:54.475Z,99043.63
2023-05-14T16:18:42.625Z,99040.91
2023-05-14T16:21:29.088Z,99035.75
2023-05-14T16:24:15.550Z,99040.06
2023-05-14T16:27:03.524Z,99036.56
2023-05-14T16:29:50.462Z,99038.47
2023-05-14T16:32:36.822Z,99029.78
2023-05-14T16:35:23.191Z,99028.97
2023-05-14T16:38:09.745Z,99021.25
2023-05-14T16:40:56.330Z,99031.53
2023-05-14T16:43:45.300Z,99024.63
2023-05-14T16:46:32.023Z,99019.47
2023-05-14T16:49:22.208Z,99023.81
2023-05-14T16:52:08.905Z,99021.41
2023-05-14T16:54:55.310Z,99017.88
2023-05-14T16:57:43.609Z,99015.31
2023-05-14T17:00:31.401Z,99022.19
2023-05-14T17:03:17.929Z,99018.69
2023-05-14T17:06:05.060Z,99016.25
2023-05-14T17:08:51.903Z,99026.53
2023-05-14T17:11:38.539Z,99025.72
2023-05-14T17:14:25.370Z,99039.56
2023-05-14T17:17:13.128Z,99039.56
2023-05-14T17:19:59.622Z,99030.06
2023-05-14T17:22:46.341Z,99036.97
2023-05-14T17:25:33.468Z,99042.22
2023-05-14T17:28:20.528Z,99031.94
2023-05-14T17:31:07.179Z,99036.28
2023-05-14T17:33:55.098Z,99032.91
2023-05-14T17:36:41.881Z,99029.38
2023-05-14T17:39:29.032Z,99037.22
2023-05-14T17:42:16.094Z,99035.47
2023-05-14T17:45:02.835Z,99045.78
2023-05-14T17:47:50.481Z,99049.16
2023-05-14T17:50:39.510Z,99040.63
2023-05-14T17:53:26.056Z,99056.06
2023-05-14T17:56:12.921Z,99062.16
2023-05-14T17:58:59.232Z,99054.44
2023-05-14T18:01:46.079Z,99060.53
2023-05-14T18:04:32.824Z,99057.94
2023-05-14T18:07:22.426Z,99067.44
2023-05-14T18:10:09.987Z,99063.22
2023-05-14T18:12:56.999Z,99067.72
2023-05-14T18:15:43.442Z,99081.53
2023-05-14T18:18:30.158Z,99087.75
2023-05-14T18:21:16.682Z,99091.25
2023-05-14T18:24:04.713Z,99096.53
2023-05-14T18:26:51.084Z,99100.88
2023-05-14T18:29:37.770Z,99109.53
2023-05-14T18:32:24.272Z,99102.09
2023-05-14T18:35:11.303Z,99116.97
2023-05-14T18:37:57.742Z,99107.22
2023-05-14T18:40:49.254Z,99108.56
2023-05-14T18:43:36.116Z,99108.41
2023-05-14T18:46:23.093Z,99100.53
2023-05-14T18:49:10.259Z,99108.78
2023-05-14T18:51:56.860Z,99108.59
2023-05-14T18:54:43.928Z,99116.81
2023-05-14T18:57:32.917Z,99121.41
2023-05-14T19:00:20.329Z,99119.66
2023-05-14T19:03:07.123Z,99127.38
2023-05-14T19:05:54.099Z,99124.94
2023-05-14T19:08:41.262Z,99118.97
2023-05-14T19:11:27.630Z,99111.25
2023-05-14T19:14:15.341Z,99118.16
2023-05-14T19:17:02.188Z,99120.84
2023-05-14T19:19:48.788Z,99129.50
2023-05-14T19:22:35.546Z,99133.16
2023-05-14T19:25:21.941Z,99136.78
2023-05-14T19:28:08.674Z,99143.13
2023-05-14T19:30:57.168Z,99140.81
2023-05-14T19:33:44.281Z,99145.13
2023-05-14T19:36:32.204Z,99146.22
2023-05-14T19:39:18.639Z,99147.16
2023-05-14T19:42:06.352Z,99141.31
2023-05-14T19:44:52.857Z,99146.72
2023-05-14T19:47:41.620Z,99148.59
2023-05-14T19:50:27.945Z,99147.78
2023-05-14T19:53:14.798Z,99145.34
2023-05-14T19:56:03.536Z,99150.47
2023-05-14T19:58:49.756Z,99144.53
2023-05-14T20:01:36.588Z,99147.91
2023-05-14T20:04:25.988Z,99154.81
2023-05-14T20:07:13.898Z,99157.50
2023-05-14T20:10:00.570Z,99152.59
2023-05-14T20:12:46.999Z,99151.22
2023-05-14T20:15:33.410Z,99151.50
2023-05-14T20:18:19.934Z,99152.44
2023-05-14T20:21:07.754Z,99161.06
2023-05-14T20:23:54.601Z,99162.72
2023-05-14T20:26:41.113Z,99166.06
2023-05-14T20:29:27.727Z,99158.28
2023-05-14T20:32:14.759Z,99158.28
2023-05-14T20:35:02.120Z,99155.56
2023-05-14T20:37:50.348Z,99151.22
2023-05-14T20:40:37.077Z,99151.22
2023-05-14T20:43:23.526Z,99142.59
2023-05-14T20:46:09.945Z,99152.88
2023-05-14T20:48:57.816Z,99136.66
2023-05-14T20:51:44.295Z,99137.47
2023-05-14T20:54:32.341Z,99130.69
2023-05-14T20:57:19.947Z,99118.78
2023-05-14T21:00:09.855Z,99112.03
2023-05-14T21:02:59.481Z,99114.84
2023-05-14T21:05:46.253Z,99108.09
2023-05-14T21:08:34.875Z,99104.81
2023-05-14T21:11:23.017Z,99108.31
2023-05-14T21:14:10.065Z,99099.94
2023-05-14T21:16:56.680Z,99099.94
2023-05-14T21:19:43.009Z,99097.38
2023-05-14T21:22:29.762Z,99093.88
2023-05-14T21:25:16.380Z,99082.78
2023-05-14T21:28:04.438Z,99077.63
2023-05-14T21:30:52.782Z,99080.34
2023-05-14T21:33:40.665Z,99079.53
2023-05-14T21:36:27.176Z,99083.03
2023-05-14T21:39:13.851Z,99071.97
2023-05-14T21:42:00.622Z,99070.06
2023-05-14T21:44:48.355Z,99066.69
2023-05-14T21:47:34.992Z,99062.22
2023-05-14T21:50:22.091Z,99064.00
2023-05-14T21:53:08.625Z,99055.44
2023-05-14T21:55:55.694Z,99058.84
2023-05-14T21:58:42.338Z,99064.00
2023-05-14T22:01:30.174Z,99057.22
2023-05-14T22:04:16.656Z,99064.13
2023-05-14T22:07:03.166Z,99069.38
2023-05-14T22:09:50.308Z,99075.47
2023-05-14T22:12:36.819Z,99068.94
2023-05-14T22:15:23.667Z,99075.94
2023-05-14T22:18:12.673Z,99072.00
2023-05-14T22:20:59.135Z,99077.28
2023-05-14T22:23:46.286Z,99077.41
2023-05-14T22:26:32.860Z,99066.44
2023-05-14T22:29:19.564Z,99064.00
2023-05-14T22:32:08.058Z,99063.19
2023-05-14T22:34:56.110Z,99064.97
2023-05-14T22:37:42.420Z,99069.25
2023-05-14T22:40:28.945Z,99065.06
2023-05-14T22:43:15.788Z,99060.06
2023-05-14T22:46:03.407Z,99058.56
2023-05-14T22:48:50.005Z,99048.38
2023-05-14T22:51:38.551Z,99043.38
2023-05-14T22:54:25.309Z,99050.28
2023-05-14T22:57:11.806Z,99050.41
2023-05-14T22:59:58.206Z,99047.00
2023-05-14T23:02:45.071Z,99040.16
2023-05-14T23:05:31.644Z,99035.94
2023-05-14T23:08:19.686Z,99037.69
2023-05-14T23:11:06.494Z,99029.31
2023-05-14T23:13:52.926Z,99019.84
2023-05-14T23:16:39.485Z,99027.41
2023-05-14T23:19:26.447Z,99031.59
2023-05-14T23:22:13.443Z,99029.03
2023-05-14T23:25:01.093Z,99037.56
2023-05-14T23:27:47.940Z,99041.88
2023-05-14T23:30:34.692Z,99033.38
2023-05-14T23:33:21.023Z,99033.38
2023-05-14T23:36:08.715Z,99027.41
2023-05-14T23:38:55.391Z,99033.38
2023-05-14T23:41:43.454Z,99024.97
2023-05-14T23:44:29.864Z,99026.75
2023-05-14T23:47:16.414Z,99034.44
2023-05-14T23:50:03.159Z,99035.50
2023-05-14T23:52:49.598Z,99037.13
2023-05-14T23:55:36.187Z,99035.63
2023-05-14T23:58:24.005Z,99039.94
